createdAt,value
2023-03-25T00:01:17.467Z,2.67
2023-03-25T00:03:51.045Z,3.20
2023-03-25T00:06:18.935Z,2.90
2023-03-25T00:08:46.677Z,3.10
2023-03-25T00:11:14.257Z,3.10
2023-03-25T00:13:42.395Z,3.90
2023-03-25T00:16:10.595Z,3.77
2023-03-25T00:18:38.314Z,4.23
2023-03-25T00:21:11.040Z,3.93
2023-03-25T00:23:39.663Z,4.00
2023-03-25T00:26:08.076Z,3.93
2023-03-25T00:28:38.384Z,4.13
2023-03-25T00:31:17.149Z,4.00
2023-03-25T00:33:44.721Z,4.93
2023-03-25T00:36:18.227Z,5.00
2023-03-25T00:38:49.477Z,6.40
2023-03-25T00:41:25.869Z,6.07
2023-03-25T00:43:57.091Z,5.03
2023-03-25T00:46:27.961Z,4.50
2023-03-25T00:48:57.111Z,4.80
2023-03-25T00:51:26.444Z,4.70
2023-03-25T00:53:57.099Z,4.80
2023-03-25T00:56:25.113Z,5.63
2023-03-25T00:58:52.900Z,5.47
2023-03-25T01:01:27.440Z,5.97
2023-03-25T01:04:00.616Z,6.30
2023-03-25T01:06:35.495Z,5.57
2023-03-25T01:09:06.863Z,5.83
2023-03-25T01:11:37.853Z,4.60
2023-03-25T01:14:09.830Z,5.20
2023-03-25T01:16:37.492Z,7.17
2023-03-25T01:19:05.095Z,15.47
2023-03-25T01:21:35.334Z,11.20
2023-03-25T01:24:05.178Z,15.60
2023-03-25T01:26:32.763Z,10.03
2023-03-25T01:29:00.750Z,10.63
2023-03-25T01:31:30.535Z,10.20
2023-03-25T01:33:58.863Z,10.40
2023-03-25T01:36:29.799Z,9.10
2023-03-25T01:38:59.392Z,9.03
2023-03-25T01:41:39.127Z,8.90
2023-03-25T01:44:20.853Z,9.17
2023-03-25T01:46:53.920Z,8.60
2023-03-25T01:49:24.820Z,7.80
2023-03-25T01:51:58.235Z,7.70
2023-03-25T01:54:27.533Z,8.10
2023-03-25T01:56:56.206Z,7.93
2023-03-25T01:59:27.384Z,7.77
2023-03-25T02:01:58.575Z,7.30
2023-03-25T02:05:00.383Z,7.20
2023-03-25T02:07:31.207Z,7.40
2023-03-25T02:10:09.377Z,7.63
2023-03-25T02:12:37.030Z,7.43
2023-03-25T02:15:07.995Z,8.30
2023-03-25T02:18:03.499Z,9.47
2023-03-25T02:20:58.949Z,8.87
2023-03-25T02:24:08.697Z,8.43
2023-03-25T02:27:27.502Z,6.80
2023-03-25T02:30:16.827Z,5.77
2023-03-25T02:32:59.360Z,6.00
2023-03-25T02:36:11.720Z,4.70
2023-03-25T02:38:51.899Z,8.80
2023-03-25T02:41:57.341Z,7.53
2023-03-25T02:44:37.355Z,7.23
2023-03-25T02:47:10.877Z,6.27
2023-03-25T02:49:47.950Z,6.40
2023-03-25T02:52:27.483Z,6.30
2023-03-25T02:55:02.044Z,6.30
2023-03-25T02:57:32.696Z,5.03
2023-03-25T03:00:01.059Z,5.50
2023-03-25T03:02:32.692Z,5.50
2023-03-25T03:05:00.274Z,6.17
2023-03-25T03:07:36.830Z,6.80
2023-03-25T03:10:25.596Z,6.80
2023-03-25T03:13:37.035Z,6.47
2023-03-25T03:16:45.016Z,6.10
2023-03-25T03:19:24.479Z,6.07
2023-03-25T03:22:36.318Z,6.90
2023-03-25T03:25:32.767Z,4.23
2023-03-25T03:28:24.972Z,4.70
2023-03-25T03:31:06.950Z,4.60
2023-03-25T03:33:50.967Z,4.20
2023-03-25T03:36:24.559Z,4.17
2023-03-25T03:39:01.678Z,4.60
2023-03-25T03:41:29.841Z,3.83
2023-03-25T03:44:04.393Z,4.30
2023-03-25T03:46:46.120Z,4.53
2023-03-25T03:49:18.920Z,3.80
2023-03-25T03:52:18.427Z,4.03
2023-03-25T03:54:57.412Z,3.60
2023-03-25T03:57:37.725Z,3.63
2023-03-25T04:00:15.275Z,3.80
2023-03-25T04:02:54.212Z,3.73
2023-03-25T04:05:23.789Z,4.53
2023-03-25T04:08:12.119Z,4.03
2023-03-25T04:10:52.845Z,4.70
2023-03-25T04:13:25.304Z,4.00
2023-03-25T04:15:53.241Z,3.73
2023-03-25T04:18:23.577Z,3.70
2023-03-25T04:20:51.026Z,4.47
2023-03-25T04:23:18.491Z,4.30
2023-03-25T04:25:55.421Z,4.33
2023-03-25T04:28:24.246Z,4.20
2023-03-25T04:30:55.940Z,3.63
2023-03-25T04:33:25.259Z,3.83
2023-03-25T04:35:53.916Z,4.10
2023-03-25T04:38:22.528Z,4.10
2023-03-25T04:40:50.073Z,3.70
2023-03-25T04:43:18.317Z,3.93
2023-03-25T04:45:55.525Z,3.80
2023-03-25T04:48:35.744Z,4.10
2023-03-25T04:51:03.809Z,3.93
2023-03-25T04:53:31.418Z,3.67
2023-03-25T04:55:58.933Z,3.70
2023-03-25T04:58:26.870Z,6.47
2023-03-25T05:00:54.537Z,4.97
2023-03-25T05:03:24.624Z,5.10
2023-03-25T05:05:53.674Z,6.10
2023-03-25T05:08:24.394Z,5.00
2023-03-25T05:10:52.743Z,4.60
2023-03-25T05:13:21.052Z,4.43
2023-03-25T05:15:48.959Z,5.00
2023-03-25T05:18:17.946Z,6.07
2023-03-25T05:20:51.102Z,6.03
2023-03-25T05:23:18.790Z,5.73
2023-03-25T05:25:49.004Z,4.90
2023-03-25T05:28:17.254Z,4.40
2023-03-25T05:30:46.780Z,4.40
2023-03-25T05:33:18.048Z,5.00
2023-03-25T05:35:46.694Z,4.90
2023-03-25T05:38:19.092Z,5.40
2023-03-25T05:40:47.922Z,5.10
2023-03-25T05:43:16.390Z,5.30
2023-03-25T05:45:45.619Z,6.00
2023-03-25T05:48:13.106Z,6.27
2023-03-25T05:50:43.039Z,9.40
2023-03-25T05:53:18.173Z,10.77
2023-03-25T05:55:47.811Z,9.53
2023-03-25T05:58:17.614Z,10.20
2023-03-25T06:00:47.233Z,8.03
2023-03-25T06:03:15.534Z,9.40
2023-03-25T06:05:43.008Z,8.40
2023-03-25T06:08:11.389Z,8.93
2023-03-25T06:10:39.810Z,7.97
2023-03-25T06:13:07.374Z,8.13
2023-03-25T06:15:39.308Z,8.43
2023-03-25T06:18:07.527Z,9.63
2023-03-25T06:20:35.046Z,7.80
2023-03-25T06:23:02.646Z,7.03
2023-03-25T06:25:31.274Z,7.30
2023-03-25T06:28:03.491Z,6.73
2023-03-25T06:30:31.205Z,4.97
2023-03-25T06:33:03.107Z,5.50
2023-03-25T06:35:30.929Z,4.93
2023-03-25T06:37:58.365Z,4.87
2023-03-25T06:40:26.094Z,4.97
2023-03-25T06:42:53.504Z,6.00
2023-03-25T06:45:21.116Z,5.70
2023-03-25T06:47:48.692Z,6.07
2023-03-25T06:50:16.315Z,5.30
2023-03-25T06:52:43.787Z,5.30
2023-03-25T06:55:11.390Z,5.80
2023-03-25T06:57:38.886Z,5.90
2023-03-25T07:00:08.148Z,5.87
2023-03-25T07:02:35.797Z,7.30
2023-03-25T07:05:03.361Z,10.10
2023-03-25T07:07:31.007Z,14.23
2023-03-25T07:09:58.554Z,9.80
2023-03-25T07:12:26.379Z,9.77
2023-03-25T07:14:55.464Z,12.20
2023-03-25T07:17:24.293Z,8.53
2023-03-25T07:19:52.014Z,6.77
2023-03-25T07:22:19.586Z,7.90
2023-03-25T07:24:47.232Z,8.27
2023-03-25T07:27:16.013Z,7.47
2023-03-25T07:29:43.553Z,7.80
2023-03-25T07:32:11.166Z,9.10
2023-03-25T07:34:38.635Z,10.77
2023-03-25T07:37:08.314Z,9.27
2023-03-25T07:39:36.068Z,9.50
2023-03-25T07:42:03.896Z,7.97
2023-03-25T07:44:31.397Z,6.73
2023-03-25T07:46:58.966Z,5.80
2023-03-25T07:49:26.491Z,4.90
2023-03-25T07:51:53.970Z,4.70
2023-03-25T07:54:22.599Z,3.97
2023-03-25T07:56:51.223Z,3.67
2023-03-25T07:59:19.109Z,4.07
2023-03-25T08:01:46.588Z,3.80
2023-03-25T08:04:14.191Z,3.60
2023-03-25T08:06:42.049Z,3.57
2023-03-25T08:09:09.611Z,3.23
2023-03-25T08:11:37.455Z,2.97
2023-03-25T08:14:05.239Z,3.47
2023-03-25T08:16:32.737Z,5.27
2023-03-25T08:19:00.261Z,2.70
2023-03-25T08:21:28.153Z,2.90
2023-03-25T08:24:02.528Z,2.77
2023-03-25T08:26:31.383Z,3.10
2023-03-25T08:28:59.865Z,2.33
2023-03-25T08:31:31.315Z,2.23
2023-03-25T08:34:03.716Z,2.13
2023-03-25T08:36:31.666Z,3.30
2023-03-25T08:38:59.231Z,2.80
2023-03-25T08:41:26.888Z,2.87
2023-03-25T08:43:54.397Z,2.73
2023-03-25T08:46:22.075Z,3.20
2023-03-25T08:48:50.326Z,2.30
2023-03-25T08:51:18.299Z,2.40
2023-03-25T08:53:46.049Z,1.90
2023-03-25T08:56:13.809Z,1.77
2023-03-25T08:58:41.375Z,2.10
2023-03-25T09:01:09.354Z,2.10
2023-03-25T09:03:38.833Z,1.80
2023-03-25T09:06:07.372Z,1.20
2023-03-25T09:08:37.140Z,1.67
2023-03-25T09:11:05.024Z,1.10
2023-03-25T09:13:32.561Z,1.10
2023-03-25T09:16:00.174Z,1.10
2023-03-25T09:18:27.693Z,1.20
2023-03-25T09:21:00.314Z,1.00
2023-03-25T09:23:28.039Z,1.13
2023-03-25T09:25:56.864Z,0.90
2023-03-25T09:28:24.364Z,0.83
2023-03-25T09:30:52.109Z,1.00
2023-03-25T09:33:19.656Z,1.33
2023-03-25T09:35:47.525Z,0.77
2023-03-25T09:38:15.278Z,1.80
2023-03-25T09:40:44.327Z,1.20
2023-03-25T09:43:29.461Z,1.60
2023-03-25T09:45:57.643Z,1.30
2023-03-25T09:48:30.918Z,1.30
2023-03-25T09:51:28.440Z,1.20
2023-03-25T09:54:17.580Z,1.40
2023-03-25T09:56:45.420Z,2.53
2023-03-25T09:59:47.099Z,1.60
2023-03-25T10:02:59.553Z,2.43
2023-03-25T10:05:54.383Z,0.60
2023-03-25T10:08:45.120Z,0.60
2023-03-25T10:11:23.913Z,0.70
2023-03-25T10:14:01.894Z,0.50
2023-03-25T10:17:06.188Z,0.60
2023-03-25T10:19:57.385Z,0.67
2023-03-25T10:22:46.555Z,0.60
2023-03-25T10:25:22.246Z,0.70
2023-03-25T10:27:52.664Z,0.60
2023-03-25T10:30:32.930Z,0.60
2023-03-25T10:33:04.515Z,0.70
2023-03-25T10:35:40.713Z,0.80
2023-03-25T10:38:24.355Z,0.73
2023-03-25T10:41:04.277Z,0.60
2023-03-25T10:43:43.118Z,0.60
2023-03-25T10:46:13.614Z,0.70
2023-03-25T10:48:41.788Z,0.57
2023-03-25T10:51:13.045Z,0.70
2023-03-25T10:53:42.153Z,0.70
2023-03-25T10:56:24.564Z,0.70
2023-03-25T10:58:58.226Z,0.67
2023-03-25T11:01:46.293Z,0.70
2023-03-25T11:04:20.104Z,0.80
2023-03-25T11:06:58.223Z,0.80
2023-03-25T11:09:31.310Z,0.87
2023-03-25T11:12:06.579Z,0.93
2023-03-25T11:14:40.224Z,0.90
2023-03-25T11:17:27.345Z,1.03
2023-03-25T11:20:04.296Z,0.70
2023-03-25T11:22:37.117Z,1.00
2023-03-25T11:25:17.154Z,0.97
2023-03-25T11:27:50.390Z,1.10
2023-03-25T11:30:23.563Z,0.80
2023-03-25T11:33:13.027Z,0.90
2023-03-25T11:35:46.958Z,1.00
2023-03-25T11:38:23.565Z,1.00
2023-03-25T11:40:57.112Z,1.20
2023-03-25T11:43:33.050Z,1.20
2023-03-25T11:46:13.989Z,0.90
2023-03-25T11:48:45.053Z,1.10
2023-03-25T11:51:23.260Z,0.90
2023-03-25T11:54:00.657Z,0.93
2023-03-25T11:56:42.220Z,0.50
2023-03-25T11:59:49.965Z,0.70
2023-03-25T12:02:27.456Z,0.70
2023-03-25T12:05:12.459Z,1.00
2023-03-25T12:07:48.677Z,0.63
2023-03-25T12:10:29.708Z,0.50
2023-03-25T12:13:33.013Z,0.80
2023-03-25T12:16:28.264Z,0.80
2023-03-25T12:19:33.771Z,0.70
2023-03-25T12:22:22.965Z,0.70
2023-03-25T12:25:23.886Z,0.80
2023-03-25T12:28:15.332Z,0.90
2023-03-25T12:31:11.583Z,0.90
2023-03-25T12:34:08.888Z,1.60
2023-03-25T12:37:11.954Z,1.20
2023-03-25T12:39:57.871Z,0.90
2023-03-25T12:42:47.224Z,1.00
2023-03-25T12:45:32.684Z,1.10
2023-03-25T12:48:24.487Z,0.83
2023-03-25T12:51:00.926Z,1.20
2023-03-25T12:53:51.258Z,1.13
2023-03-25T12:56:45.106Z,1.30
2023-03-25T12:59:42.903Z,1.37
2023-03-25T13:02:28.141Z,1.60
2023-03-25T13:05:25.072Z,1.70
2023-03-25T13:08:03.997Z,1.90
2023-03-25T13:10:37.021Z,2.00
2023-03-25T13:13:13.604Z,1.67
2023-03-25T13:16:04.881Z,1.97
2023-03-25T13:18:52.477Z,1.73
2023-03-25T13:21:52.863Z,1.63
2023-03-25T13:24:49.850Z,1.70
2023-03-25T13:27:18.703Z,1.80
2023-03-25T13:29:56.115Z,1.40
2023-03-25T13:32:41.201Z,0.90
2023-03-25T13:35:34.141Z,0.70
2023-03-25T13:38:07.656Z,0.60
2023-03-25T13:40:45.948Z,0.63
2023-03-25T13:43:16.454Z,0.50
2023-03-25T13:46:09.234Z,0.57
2023-03-25T13:48:49.799Z,0.60
2023-03-25T13:51:17.302Z,0.50
2023-03-25T13:54:17.222Z,0.50
2023-03-25T13:57:19.486Z,0.50
2023-03-25T14:00:00.156Z,0.43
2023-03-25T14:02:45.697Z,0.60
2023-03-25T14:06:05.155Z,1.00
2023-03-25T14:08:59.341Z,0.80
2023-03-25T14:12:12.162Z,0.57
2023-03-25T14:14:48.955Z,0.50
2023-03-25T14:17:19.382Z,0.70
2023-03-25T14:19:58.415Z,0.90
2023-03-25T14:22:37.047Z,0.90
2023-03-25T14:25:05.727Z,0.73
2023-03-25T14:27:37.784Z,0.80
2023-03-25T14:30:27.816Z,1.30
2023-03-25T14:32:56.756Z,1.10
2023-03-25T14:35:39.186Z,0.80
2023-03-25T14:38:09.290Z,0.90
2023-03-25T14:40:55.335Z,0.70
2023-03-25T14:43:47.547Z,0.70
2023-03-25T14:46:19.503Z,0.70
2023-03-25T14:49:22.614Z,0.70
2023-03-25T14:51:54.673Z,1.57
2023-03-25T14:54:36.650Z,0.70
2023-03-25T14:57:14.182Z,0.80
2023-03-25T15:00:10.140Z,0.80
2023-03-25T15:02:38.965Z,0.70
2023-03-25T15:05:25.769Z,0.70
2023-03-25T15:08:05.136Z,0.60
2023-03-25T15:11:17.256Z,0.50
2023-03-25T15:13:53.520Z,0.40
2023-03-25T15:16:48.514Z,0.60
2023-03-25T15:19:18.286Z,0.60
2023-03-25T15:22:01.250Z,0.60
2023-03-25T15:24:42.199Z,0.60
2023-03-25T15:27:33.779Z,0.87
2023-03-25T15:30:47.230Z,1.80
2023-03-25T15:33:46.970Z,1.57
2023-03-25T15:37:01.297Z,1.33
2023-03-25T15:39:46.418Z,0.70
2023-03-25T15:42:57.305Z,0.90
2023-03-25T15:46:02.225Z,0.90
2023-03-25T15:49:19.395Z,1.17
2023-03-25T15:52:21.467Z,1.10
2023-03-25T15:55:21.635Z,1.23
2023-03-25T15:58:35.283Z,1.00
2023-03-25T16:01:27.951Z,0.90
2023-03-25T16:04:40.917Z,1.00
2023-03-25T16:07:14.446Z,1.10
2023-03-25T16:09:48.590Z,1.00
2023-03-25T16:12:25.634Z,1.00
2023-03-25T16:14:53.568Z,1.20
2023-03-25T16:17:25.284Z,1.30
2023-03-25T16:19:57.247Z,1.47
2023-03-25T16:22:34.861Z,1.10
2023-03-25T16:25:09.482Z,1.47
2023-03-25T16:27:44.475Z,1.10
2023-03-25T16:30:37.028Z,1.13
2023-03-25T16:33:17.605Z,1.10
2023-03-25T16:36:01.774Z,1.10
2023-03-25T16:38:31.258Z,1.20
2023-03-25T16:41:13.796Z,1.07
2023-03-25T16:43:42.684Z,1.30
2023-03-25T16:46:12.563Z,1.10
2023-03-25T16:48:53.346Z,1.20
2023-03-25T16:51:36.738Z,1.07
2023-03-25T16:54:13.344Z,1.30
2023-03-25T16:56:43.605Z,1.10
2023-03-25T16:59:34.799Z,1.30
2023-03-25T17:02:05.506Z,1.40
2023-03-25T17:04:39.401Z,1.67
2023-03-25T17:07:13.567Z,1.80
2023-03-25T17:09:43.310Z,1.47
2023-03-25T17:12:18.473Z,1.50
2023-03-25T17:14:50.453Z,1.90
2023-03-25T17:17:51.605Z,1.93
2023-03-25T17:20:40.420Z,2.30
2023-03-25T17:23:38.566Z,2.90
2023-03-25T17:26:09.099Z,1.97
2023-03-25T17:28:58.336Z,2.23
2023-03-25T17:31:34.699Z,1.70
2023-03-25T17:34:19.392Z,1.80
2023-03-25T17:36:50.220Z,1.63
2023-03-25T17:39:31.048Z,1.50
2023-03-25T17:42:14.585Z,3.03
2023-03-25T17:44:45.581Z,3.40
2023-03-25T17:47:19.366Z,3.10
2023-03-25T17:49:47.382Z,3.87
2023-03-25T17:52:14.847Z,5.27
2023-03-25T17:54:42.325Z,7.70
2023-03-25T17:57:17.055Z,9.87
2023-03-25T17:59:45.887Z,12.43
2023-03-25T18:02:17.464Z,3.50
2023-03-25T18:04:45.101Z,3.10
2023-03-25T18:07:12.578Z,3.50
2023-03-25T18:09:41.483Z,2.13
2023-03-25T18:12:10.648Z,2.67
2023-03-25T18:14:38.170Z,2.57
2023-03-25T18:17:06.088Z,5.60
2023-03-25T18:19:34.332Z,7.13
2023-03-25T18:22:09.800Z,6.80
2023-03-25T18:24:41.634Z,5.30
2023-03-25T18:27:14.394Z,2.77
2023-03-25T18:29:42.354Z,3.43
2023-03-25T18:32:09.882Z,8.73
2023-03-25T18:34:37.398Z,3.53
2023-03-25T18:37:04.934Z,4.50
2023-03-25T18:39:32.914Z,3.93
2023-03-25T18:42:00.450Z,6.03
2023-03-25T18:44:28.656Z,3.00
2023-03-25T18:46:56.334Z,4.13
2023-03-25T18:49:23.820Z,4.20
2023-03-25T18:51:51.524Z,6.63
2023-03-25T18:54:19.048Z,5.77
2023-03-25T18:56:46.680Z,4.53
2023-03-25T18:59:18.975Z,6.17
2023-03-25T19:01:47.641Z,5.43
2023-03-25T19:04:15.187Z,4.80
2023-03-25T19:06:43.255Z,3.67
2023-03-25T19:09:22.873Z,3.70
2023-03-25T19:11:50.476Z,3.10
2023-03-25T19:14:17.960Z,2.47
2023-03-25T19:16:57.105Z,2.03
2023-03-25T19:19:24.929Z,2.43
2023-03-25T19:21:54.417Z,1.50
2023-03-25T19:24:21.868Z,2.90
2023-03-25T19:26:49.319Z,6.17
2023-03-25T19:29:16.763Z,3.60
2023-03-25T19:31:44.209Z,2.17
2023-03-25T19:34:11.729Z,2.17
2023-03-25T19:36:39.144Z,4.10
2023-03-25T19:39:06.875Z,3.50
2023-03-25T19:41:35.423Z,3.20
2023-03-25T19:44:02.847Z,3.67
2023-03-25T19:46:31.997Z,2.30
2023-03-25T19:48:59.694Z,1.70
2023-03-25T19:51:27.358Z,2.10
2023-03-25T19:53:55.151Z,1.93
2023-03-25T19:56:22.702Z,1.43
2023-03-25T19:58:50.149Z,1.40
2023-03-25T20:01:18.277Z,1.40
2023-03-25T20:03:45.884Z,1.23
2023-03-25T20:06:14.197Z,1.40
2023-03-25T20:08:41.727Z,1.03
2023-03-25T20:11:12.205Z,1.23
2023-03-25T20:13:39.898Z,1.30
2023-03-25T20:16:08.544Z,1.50
2023-03-25T20:18:36.294Z,1.40
2023-03-25T20:21:08.055Z,1.60
2023-03-25T20:23:35.834Z,1.53
2023-03-25T20:26:04.109Z,1.50
2023-03-25T20:28:31.718Z,1.37
2023-03-25T20:30:59.358Z,1.40
2023-03-25T20:33:28.240Z,1.57
2023-03-25T20:35:55.959Z,1.83
2023-03-25T20:38:23.533Z,1.80
2023-03-25T20:40:54.733Z,1.80
2023-03-25T20:43:22.205Z,2.00
2023-03-25T20:45:54.628Z,2.00
2023-03-25T20:48:23.387Z,2.40
2023-03-25T20:50:59.052Z,3.37
2023-03-25T20:53:29.366Z,4.77
2023-03-25T20:56:01.886Z,5.30
2023-03-25T20:58:30.373Z,4.13
2023-03-25T21:00:59.854Z,3.80
2023-03-25T21:03:28.328Z,3.20
2023-03-25T21:05:58.556Z,3.70
2023-03-25T21:08:30.567Z,4.00
2023-03-25T21:11:00.563Z,4.93
2023-03-25T21:13:31.888Z,6.13
2023-03-25T21:16:02.240Z,5.33
2023-03-25T21:18:29.891Z,4.30
2023-03-25T21:21:00.845Z,5.43
2023-03-25T21:23:30.987Z,5.43
2023-03-25T21:26:04.640Z,6.00
2023-03-25T21:28:32.885Z,5.20
2023-03-25T21:31:09.418Z,6.17
2023-03-25T21:33:38.301Z,4.97
2023-03-25T21:36:08.815Z,5.23
2023-03-25T21:38:36.878Z,4.97
2023-03-25T21:41:07.124Z,5.60
2023-03-25T21:43:37.112Z,4.77
2023-03-25T21:46:06.424Z,4.60
2023-03-25T21:48:38.328Z,4.60
2023-03-25T21:51:14.518Z,4.77
2023-03-25T21:53:45.553Z,4.03
2023-03-25T21:56:21.358Z,4.27
2023-03-25T21:58:49.292Z,4.37
2023-03-25T22:01:23.388Z,3.40
2023-03-25T22:03:55.446Z,3.30
2023-03-25T22:06:29.988Z,2.80
2023-03-25T22:08:57.505Z,3.20
2023-03-25T22:11:31.059Z,3.70
2023-03-25T22:13:58.843Z,3.83
2023-03-25T22:16:26.985Z,4.03
2023-03-25T22:18:54.466Z,4.77
2023-03-25T22:21:29.808Z,4.33
2023-03-25T22:24:01.522Z,4.10
2023-03-25T22:26:31.620Z,3.60
2023-03-25T22:29:04.783Z,3.37
2023-03-25T22:31:39.807Z,3.00
2023-03-25T22:34:15.554Z,3.03
2023-03-25T22:36:50.538Z,3.30
2023-03-25T22:39:20.207Z,2.93
2023-03-25T22:41:47.908Z,3.57
2023-03-25T22:44:17.217Z,3.57
2023-03-25T22:46:46.476Z,3.40
2023-03-25T22:49:15.654Z,3.20
2023-03-25T22:51:43.253Z,3.00
2023-03-25T22:54:10.966Z,2.93
2023-03-25T22:56:38.866Z,2.93
2023-03-25T22:59:07.880Z,3.00
2023-03-25T23:01:36.312Z,2.90
2023-03-25T23:04:04.250Z,2.80
2023-03-25T23:06:33.505Z,3.30
2023-03-25T23:09:01.069Z,3.43
2023-03-25T23:11:31.072Z,3.47
2023-03-25T23:14:04.038Z,4.13
2023-03-25T23:16:34.500Z,3.97
2023-03-25T23:19:05.155Z,3.30
2023-03-25T23:21:33.930Z,3.53
2023-03-25T23:24:04.145Z,3.33
2023-03-25T23:26:40.939Z,4.00
2023-03-25T23:29:11.796Z,4.87
2023-03-25T23:31:43.526Z,4.67
2023-03-25T23:34:17.028Z,3.70
2023-03-25T23:36:46.335Z,4.87
2023-03-25T23:39:17.670Z,5.10
2023-03-25T23:41:45.186Z,4.13
2023-03-25T23:44:13.359Z,4.20
2023-03-25T23:46:42.047Z,4.60
2023-03-25T23:49:10.921Z,5.10
2023-03-25T23:51:42.713Z,3.37
2023-03-25T23:54:13.481Z,2.57
2023-03-25T23:56:42.630Z,2.17
2023-03-25T23:59:12.251Z,2.60
